Decoded Metar for UCFO ( in ) (IATA:) | Meteo·Mobile Aviation Weather
aviador You're here:

UCFO Decoded Metar

in
Report Time2019-10-21 07:30:00
UTC Time2019-10-21 08:03:49
Flight Rules vfr VFR
Wind030° at 10 kt
Visibility9999 m
Phenomena:N/A
Clouds:Few CB 050 Hf
Scattered 120 Hf
Expected CloudBase > 6,800 ft AGL from Temp-Dew spread
CeilingNone
Temp20°C
Dew Point03°C (33% RH)
AAT14.9°C
QNH1021 hPa
Raw Report
METAR UCFO 210730Z 03005MPS 360V090 9999 FEW050CB SCT120 20/03 Q1021
R12/0///95 NOSIG=

Extra information for UCFO:More info

Social comments